sensor_id;sensor_type;location;lat;lon;timestamp;P1;durP1;ratioP1;P2;durP2;ratioP2
35223;SDS011;21367;51.930;8.112;2023-06-26T00:02:21;17.85;;;10.50;;
35223;SDS011;21367;51.930;8.112;2023-06-26T00:07:25;17.85;;;9.68;;
35223;SDS011;21367;51.930;8.112;2023-06-26T00:12:28;17.15;;;9.40;;
35223;SDS011;21367;51.930;8.112;2023-06-26T00:17:39;15.93;;;11.23;;
35223;SDS011;21367;51.930;8.112;2023-06-26T00:22:42;17.98;;;10.38;;
35223;SDS011;21367;51.930;8.112;2023-06-26T00:27:46;14.70;;;10.45;;
35223;SDS011;21367;51.930;8.112;2023-06-26T00:32:52;16.95;;;10.13;;
35223;SDS011;21367;51.930;8.112;2023-06-26T00:37:58;16.50;;;10.75;;
35223;SDS011;21367;51.930;8.112;2023-06-26T00:43:01;21.67;;;10.75;;
35223;SDS011;21367;51.930;8.112;2023-06-26T00:48:07;21.23;;;11.02;;
35223;SDS011;21367;51.930;8.112;2023-06-26T00:53:13;15.25;;;10.23;;
35223;SDS011;21367;51.930;8.112;2023-06-26T00:58:16;18.58;;;10.93;;
35223;SDS011;21367;51.930;8.112;2023-06-26T01:03:23;25.35;;;10.13;;
35223;SDS011;21367;51.930;8.112;2023-06-26T01:08:29;16.65;;;11.23;;
35223;SDS011;21367;51.930;8.112;2023-06-26T01:13:33;14.75;;;9.60;;
35223;SDS011;21367;51.930;8.112;2023-06-26T01:18:41;15.93;;;10.77;;
35223;SDS011;21367;51.930;8.112;2023-06-26T01:23:52;14.95;;;10.30;;
35223;SDS011;21367;51.930;8.112;2023-06-26T01:29:09;19.55;;;9.65;;
35223;SDS011;21367;51.930;8.112;2023-06-26T01:34:13;17.10;;;10.35;;
35223;SDS011;21367;51.930;8.112;2023-06-26T01:39:18;16.83;;;9.98;;
35223;SDS011;21367;51.930;8.112;2023-06-26T01:44:28;17.45;;;10.07;;
35223;SDS011;21367;51.930;8.112;2023-06-26T01:49:36;15.63;;;10.35;;
35223;SDS011;21367;51.930;8.112;2023-06-26T01:54:48;15.10;;;9.07;;
35223;SDS011;21367;51.930;8.112;2023-06-26T02:00:00;16.08;;;9.77;;
35223;SDS011;21367;51.930;8.112;2023-06-26T02:05:14;17.48;;;10.20;;
35223;SDS011;21367;51.930;8.112;2023-06-26T02:10:17;17.63;;;10.02;;
35223;SDS011;21367;51.930;8.112;2023-06-26T02:15:24;14.85;;;9.30;;
35223;SDS011;21367;51.930;8.112;2023-06-26T02:20:28;19.70;;;9.55;;
35223;SDS011;21367;51.930;8.112;2023-06-26T02:25:34;18.80;;;9.10;;
35223;SDS011;21367;51.930;8.112;2023-06-26T02:30:40;16.63;;;9.38;;
35223;SDS011;21367;51.930;8.112;2023-06-26T02:35:44;21.65;;;10.27;;
35223;SDS011;21367;51.930;8.112;2023-06-26T02:40:48;18.98;;;8.95;;
35223;SDS011;21367;51.930;8.112;2023-06-26T02:45:54;18.27;;;9.35;;
35223;SDS011;21367;51.930;8.112;2023-06-26T02:50:58;18.83;;;10.00;;
35223;SDS011;21367;51.930;8.112;2023-06-26T02:56:06;19.75;;;9.30;;
35223;SDS011;21367;51.930;8.112;2023-06-26T03:01:12;19.50;;;9.77;;
35223;SDS011;21367;51.930;8.112;2023-06-26T03:06:17;18.48;;;9.45;;
35223;SDS011;21367;51.930;8.112;2023-06-26T03:11:21;19.75;;;9.80;;
35223;SDS011;21367;51.930;8.112;2023-06-26T03:16:28;17.45;;;9.75;;
35223;SDS011;21367;51.930;8.112;2023-06-26T03:21:31;17.98;;;10.07;;
35223;SDS011;21367;51.930;8.112;2023-06-26T03:26:35;18.95;;;9.75;;
35223;SDS011;21367;51.930;8.112;2023-06-26T03:31:42;19.08;;;10.25;;
35223;SDS011;21367;51.930;8.112;2023-06-26T03:36:46;19.60;;;10.02;;
35223;SDS011;21367;51.930;8.112;2023-06-26T03:41:50;21.95;;;10.50;;
35223;SDS011;21367;51.930;8.112;2023-06-26T03:46:58;17.50;;;10.02;;
35223;SDS011;21367;51.930;8.112;2023-06-26T03:52:03;22.00;;;10.98;;
35223;SDS011;21367;51.930;8.112;2023-06-26T03:57:07;19.42;;;9.68;;
35223;SDS011;21367;51.930;8.112;2023-06-26T04:02:13;18.27;;;10.45;;
35223;SDS011;21367;51.930;8.112;2023-06-26T04:07:17;21.73;;;10.43;;
35223;SDS011;21367;51.930;8.112;2023-06-26T04:12:21;24.65;;;10.02;;
35223;SDS011;21367;51.930;8.112;2023-06-26T04:17:27;22.27;;;11.02;;
35223;SDS011;21367;51.930;8.112;2023-06-26T04:22:31;21.02;;;9.88;;
35223;SDS011;21367;51.930;8.112;2023-06-26T04:27:35;20.38;;;10.68;;
35223;SDS011;21367;51.930;8.112;2023-06-26T04:32:41;24.00;;;9.77;;
35223;SDS011;21367;51.930;8.112;2023-06-26T04:37:45;17.35;;;9.23;;
35223;SDS011;21367;51.930;8.112;2023-06-26T04:42:49;18.17;;;8.95;;
35223;SDS011;21367;51.930;8.112;2023-06-26T04:47:55;22.00;;;8.05;;
35223;SDS011;21367;51.930;8.112;2023-06-26T04:53:01;11.98;;;8.13;;
35223;SDS011;21367;51.930;8.112;2023-06-26T04:58:04;15.68;;;7.45;;
35223;SDS011;21367;51.930;8.112;2023-06-26T05:03:11;18.30;;;7.40;;
35223;SDS011;21367;51.930;8.112;2023-06-26T05:08:17;20.38;;;8.77;;
35223;SDS011;21367;51.930;8.112;2023-06-26T05:13:24;17.38;;;7.85;;
35223;SDS011;21367;51.930;8.112;2023-06-26T05:18:30;19.15;;;7.57;;
35223;SDS011;21367;51.930;8.112;2023-06-26T05:23:34;17.42;;;8.63;;
35223;SDS011;21367;51.930;8.112;2023-06-26T05:28:38;21.90;;;8.95;;
35223;SDS011;21367;51.930;8.112;2023-06-26T05:33:47;14.48;;;8.45;;
35223;SDS011;21367;51.930;8.112;2023-06-26T05:38:52;13.77;;;8.68;;
35223;SDS011;21367;51.930;8.112;2023-06-26T05:43:56;19.83;;;8.75;;
35223;SDS011;21367;51.930;8.112;2023-06-26T05:49:03;15.27;;;8.70;;
35223;SDS011;21367;51.930;8.112;2023-06-26T05:54:07;16.40;;;9.27;;
35223;SDS011;21367;51.930;8.112;2023-06-26T05:59:12;17.13;;;10.33;;
35223;SDS011;21367;51.930;8.112;2023-06-26T06:04:21;21.23;;;10.15;;
35223;SDS011;21367;51.930;8.112;2023-06-26T06:09:25;18.92;;;10.85;;
35223;SDS011;21367;51.930;8.112;2023-06-26T06:14:28;17.98;;;9.77;;
35223;SDS011;21367;51.930;8.112;2023-06-26T06:19:34;16.90;;;9.63;;
35223;SDS011;21367;51.930;8.112;2023-06-26T06:24:38;21.10;;;10.77;;
35223;SDS011;21367;51.930;8.112;2023-06-26T06:29:42;24.85;;;11.25;;
35223;SDS011;21367;51.930;8.112;2023-06-26T06:34:48;23.67;;;11.07;;
35223;SDS011;21367;51.930;8.112;2023-06-26T06:39:52;17.55;;;9.55;;
35223;SDS011;21367;51.930;8.112;2023-06-26T06:44:55;19.02;;;10.85;;
35223;SDS011;21367;51.930;8.112;2023-06-26T06:50:02;20.73;;;10.68;;
35223;SDS011;21367;51.930;8.112;2023-06-26T06:55:08;18.75;;;9.07;;
35223;SDS011;21367;51.930;8.112;2023-06-26T07:00:12;16.48;;;8.43;;
35223;SDS011;21367;51.930;8.112;2023-06-26T07:05:20;17.17;;;7.83;;
35223;SDS011;21367;51.930;8.112;2023-06-26T07:10:24;17.52;;;8.35;;
35223;SDS011;21367;51.930;8.112;2023-06-26T07:15:27;17.67;;;7.80;;
35223;SDS011;21367;51.930;8.112;2023-06-26T07:20:34;17.17;;;7.32;;
35223;SDS011;21367;51.930;8.112;2023-06-26T07:25:37;20.52;;;7.18;;
35223;SDS011;21367;51.930;8.112;2023-06-26T07:30:41;19.92;;;8.00;;
35223;SDS011;21367;51.930;8.112;2023-06-26T07:35:47;21.85;;;7.53;;
35223;SDS011;21367;51.930;8.112;2023-06-26T07:40:51;29.70;;;7.45;;
35223;SDS011;21367;51.930;8.112;2023-06-26T07:45:55;12.43;;;6.68;;
35223;SDS011;21367;51.930;8.112;2023-06-26T07:51:01;18.95;;;7.85;;
35223;SDS011;21367;51.930;8.112;2023-06-26T07:56:05;17.95;;;7.35;;
35223;SDS011;21367;51.930;8.112;2023-06-26T08:01:09;24.67;;;6.97;;
35223;SDS011;21367;51.930;8.112;2023-06-26T08:06:15;21.58;;;7.20;;
35223;SDS011;21367;51.930;8.112;2023-06-26T08:11:19;22.85;;;7.40;;
35223;SDS011;21367;51.930;8.112;2023-06-26T08:16:22;21.52;;;8.30;;
35223;SDS011;21367;51.930;8.112;2023-06-26T08:21:29;21.25;;;9.02;;
35223;SDS011;21367;51.930;8.112;2023-06-26T08:26:33;23.33;;;7.88;;
35223;SDS011;21367;51.930;8.112;2023-06-26T08:31:37;25.23;;;8.43;;
35223;SDS011;21367;51.930;8.112;2023-06-26T08:36:44;27.00;;;7.90;;
35223;SDS011;21367;51.930;8.112;2023-06-26T08:41:48;24.67;;;7.85;;
35223;SDS011;21367;51.930;8.112;2023-06-26T08:46:51;20.92;;;8.13;;
35223;SDS011;21367;51.930;8.112;2023-06-26T08:51:59;21.88;;;7.32;;
35223;SDS011;21367;51.930;8.112;2023-06-26T08:57:09;24.40;;;7.40;;
35223;SDS011;21367;51.930;8.112;2023-06-26T09:02:14;20.13;;;6.10;;
35223;SDS011;21367;51.930;8.112;2023-06-26T09:07:20;25.45;;;7.43;;
35223;SDS011;21367;51.930;8.112;2023-06-26T09:12:24;18.13;;;6.20;;
35223;SDS011;21367;51.930;8.112;2023-06-26T09:17:30;22.73;;;6.75;;
35223;SDS011;21367;51.930;8.112;2023-06-26T09:22:37;20.05;;;7.07;;
35223;SDS011;21367;51.930;8.112;2023-06-26T09:27:42;29.90;;;7.78;;
35223;SDS011;21367;51.930;8.112;2023-06-26T09:32:47;20.73;;;6.70;;
35223;SDS011;21367;51.930;8.112;2023-06-26T09:37:53;31.15;;;7.72;;
35223;SDS011;21367;51.930;8.112;2023-06-26T09:43:02;23.65;;;5.70;;
35223;SDS011;21367;51.930;8.112;2023-06-26T09:48:06;30.02;;;7.00;;
35223;SDS011;21367;51.930;8.112;2023-06-26T09:53:14;23.63;;;6.88;;
35223;SDS011;21367;51.930;8.112;2023-06-26T09:58:19;22.70;;;5.93;;
35223;SDS011;21367;51.930;8.112;2023-06-26T10:03:23;24.45;;;6.78;;
35223;SDS011;21367;51.930;8.112;2023-06-26T10:08:29;21.52;;;5.80;;
35223;SDS011;21367;51.930;8.112;2023-06-26T10:13:34;16.02;;;5.15;;
35223;SDS011;21367;51.930;8.112;2023-06-26T10:18:41;14.63;;;4.78;;
35223;SDS011;21367;51.930;8.112;2023-06-26T10:23:50;12.77;;;5.32;;
35223;SDS011;21367;51.930;8.112;2023-06-26T10:28:56;16.25;;;5.40;;
35223;SDS011;21367;51.930;8.112;2023-06-26T10:34:00;12.30;;;5.22;;
35223;SDS011;21367;51.930;8.112;2023-06-26T10:39:07;14.85;;;5.85;;
35223;SDS011;21367;51.930;8.112;2023-06-26T10:44:11;11.50;;;4.30;;
35223;SDS011;21367;51.930;8.112;2023-06-26T10:49:21;13.48;;;4.22;;
35223;SDS011;21367;51.930;8.112;2023-06-26T10:54:31;11.20;;;4.68;;
35223;SDS011;21367;51.930;8.112;2023-06-26T10:59:38;14.80;;;4.45;;
35223;SDS011;21367;51.930;8.112;2023-06-26T11:04:44;9.00;;;3.47;;
35223;SDS011;21367;51.930;8.112;2023-06-26T11:09:58;11.73;;;3.38;;
35223;SDS011;21367;51.930;8.112;2023-06-26T11:15:03;7.75;;;3.72;;
35223;SDS011;21367;51.930;8.112;2023-06-26T11:20:10;13.52;;;3.83;;
35223;SDS011;21367;51.930;8.112;2023-06-26T11:25:19;12.50;;;3.65;;
35223;SDS011;21367;51.930;8.112;2023-06-26T11:30:24;16.30;;;3.20;;
35223;SDS011;21367;51.930;8.112;2023-06-26T11:35:29;18.15;;;3.92;;
35223;SDS011;21367;51.930;8.112;2023-06-26T11:40:36;11.73;;;3.43;;
35223;SDS011;21367;51.930;8.112;2023-06-26T11:45:39;12.70;;;3.28;;
35223;SDS011;21367;51.930;8.112;2023-06-26T11:50:43;8.13;;;3.67;;
35223;SDS011;21367;51.930;8.112;2023-06-26T11:55:49;21.67;;;3.42;;
35223;SDS011;21367;51.930;8.112;2023-06-26T12:00:53;10.00;;;3.15;;
35223;SDS011;21367;51.930;8.112;2023-06-26T12:05:57;8.02;;;2.83;;
35223;SDS011;21367;51.930;8.112;2023-06-26T12:11:04;10.88;;;3.45;;
35223;SDS011;21367;51.930;8.112;2023-06-26T12:16:08;8.82;;;3.28;;
35223;SDS011;21367;51.930;8.112;2023-06-26T12:26:51;11.55;;;3.58;;
35223;SDS011;21367;51.930;8.112;2023-06-26T12:31:57;16.20;;;3.42;;
35223;SDS011;21367;51.930;8.112;2023-06-26T12:37:01;7.28;;;3.35;;
35223;SDS011;21367;51.930;8.112;2023-06-26T12:42:09;6.32;;;3.22;;
35223;SDS011;21367;51.930;8.112;2023-06-26T12:47:19;15.95;;;3.47;;
35223;SDS011;21367;51.930;8.112;2023-06-26T12:52:27;6.68;;;3.08;;
35223;SDS011;21367;51.930;8.112;2023-06-26T12:57:33;13.05;;;3.35;;
35223;SDS011;21367;51.930;8.112;2023-06-26T13:02:37;12.90;;;3.10;;
35223;SDS011;21367;51.930;8.112;2023-06-26T13:07:41;6.90;;;3.30;;
35223;SDS011;21367;51.930;8.112;2023-06-26T13:12:47;8.60;;;3.33;;
35223;SDS011;21367;51.930;8.112;2023-06-26T13:17:51;10.73;;;2.95;;
35223;SDS011;21367;51.930;8.112;2023-06-26T13:22:55;10.82;;;3.15;;
35223;SDS011;21367;51.930;8.112;2023-06-26T13:28:01;10.40;;;2.50;;
35223;SDS011;21367;51.930;8.112;2023-06-26T13:33:05;12.60;;;2.78;;
35223;SDS011;21367;51.930;8.112;2023-06-26T13:38:08;14.98;;;2.30;;
35223;SDS011;21367;51.930;8.112;2023-06-26T13:43:15;6.57;;;2.08;;
35223;SDS011;21367;51.930;8.112;2023-06-26T13:48:18;4.80;;;2.10;;
35223;SDS011;21367;51.930;8.112;2023-06-26T13:53:22;13.93;;;2.00;;
35223;SDS011;21367;51.930;8.112;2023-06-26T13:58:28;13.90;;;1.90;;
35223;SDS011;21367;51.930;8.112;2023-06-26T14:03:33;9.63;;;1.77;;
35223;SDS011;21367;51.930;8.112;2023-06-26T14:08:36;18.35;;;2.55;;
35223;SDS011;21367;51.930;8.112;2023-06-26T14:13:42;11.07;;;2.20;;
35223;SDS011;21367;51.930;8.112;2023-06-26T14:18:46;6.80;;;2.20;;
35223;SDS011;21367;51.930;8.112;2023-06-26T14:23:50;19.50;;;2.17;;
35223;SDS011;21367;51.930;8.112;2023-06-26T14:29:00;5.38;;;1.95;;
35223;SDS011;21367;51.930;8.112;2023-06-26T14:34:03;7.57;;;2.15;;
35223;SDS011;21367;51.930;8.112;2023-06-26T14:39:07;7.78;;;2.10;;
35223;SDS011;21367;51.930;8.112;2023-06-26T14:44:13;6.28;;;1.70;;
35223;SDS011;21367;51.930;8.112;2023-06-26T14:49:17;13.38;;;1.70;;
35223;SDS011;21367;51.930;8.112;2023-06-26T14:54:21;13.25;;;2.03;;
35223;SDS011;21367;51.930;8.112;2023-06-26T14:59:27;5.30;;;1.70;;
35223;SDS011;21367;51.930;8.112;2023-06-26T15:04:31;5.68;;;2.00;;
35223;SDS011;21367;51.930;8.112;2023-06-26T15:09:35;17.98;;;1.83;;
35223;SDS011;21367;51.930;8.112;2023-06-26T15:14:41;10.38;;;2.00;;
35223;SDS011;21367;51.930;8.112;2023-06-26T15:19:45;5.75;;;1.73;;
35223;SDS011;21367;51.930;8.112;2023-06-26T15:24:48;10.50;;;1.90;;
35223;SDS011;21367;51.930;8.112;2023-06-26T15:29:54;11.30;;;1.52;;
35223;SDS011;21367;51.930;8.112;2023-06-26T15:34:58;4.80;;;1.80;;
35223;SDS011;21367;51.930;8.112;2023-06-26T15:40:02;8.57;;;1.90;;
35223;SDS011;21367;51.930;8.112;2023-06-26T15:45:09;10.10;;;1.57;;
35223;SDS011;21367;51.930;8.112;2023-06-26T15:50:13;6.18;;;1.70;;
35223;SDS011;21367;51.930;8.112;2023-06-26T15:55:17;8.50;;;1.45;;
35223;SDS011;21367;51.930;8.112;2023-06-26T16:00:23;6.43;;;1.73;;
35223;SDS011;21367;51.930;8.112;2023-06-26T16:05:27;4.18;;;1.40;;
35223;SDS011;21367;51.930;8.112;2023-06-26T16:10:31;6.47;;;1.85;;
35223;SDS011;21367;51.930;8.112;2023-06-26T16:15:37;5.30;;;2.10;;
35223;SDS011;21367;51.930;8.112;2023-06-26T16:20:41;6.80;;;1.90;;
35223;SDS011;21367;51.930;8.112;2023-06-26T16:25:45;4.53;;;1.80;;
35223;SDS011;21367;51.930;8.112;2023-06-26T16:30:51;8.95;;;1.52;;
35223;SDS011;21367;51.930;8.112;2023-06-26T16:35:55;9.30;;;1.60;;
35223;SDS011;21367;51.930;8.112;2023-06-26T16:40:58;5.82;;;1.63;;
35223;SDS011;21367;51.930;8.112;2023-06-26T16:46:05;10.77;;;2.20;;
35223;SDS011;21367;51.930;8.112;2023-06-26T16:51:08;7.57;;;2.00;;
35223;SDS011;21367;51.930;8.112;2023-06-26T16:56:12;2.75;;;1.60;;
35223;SDS011;21367;51.930;8.112;2023-06-26T17:01:18;13.95;;;2.00;;
35223;SDS011;21367;51.930;8.112;2023-06-26T17:06:22;12.20;;;1.85;;
35223;SDS011;21367;51.930;8.112;2023-06-26T17:11:26;9.05;;;1.67;;
35223;SDS011;21367;51.930;8.112;2023-06-26T17:16:32;9.68;;;1.67;;
35223;SDS011;21367;51.930;8.112;2023-06-26T17:21:36;10.15;;;2.00;;
35223;SDS011;21367;51.930;8.112;2023-06-26T17:26:41;3.53;;;2.20;;
35223;SDS011;21367;51.930;8.112;2023-06-26T17:31:48;3.85;;;2.38;;
35223;SDS011;21367;51.930;8.112;2023-06-26T17:36:51;4.95;;;1.77;;
35223;SDS011;21367;51.930;8.112;2023-06-26T17:41:55;5.68;;;1.67;;
35223;SDS011;21367;51.930;8.112;2023-06-26T17:47:02;4.38;;;1.80;;
35223;SDS011;21367;51.930;8.112;2023-06-26T17:52:07;5.88;;;1.42;;
35223;SDS011;21367;51.930;8.112;2023-06-26T17:57:10;10.02;;;2.22;;
35223;SDS011;21367;51.930;8.112;2023-06-26T18:02:17;5.50;;;2.00;;
35223;SDS011;21367;51.930;8.112;2023-06-26T18:07:20;8.15;;;2.25;;
35223;SDS011;21367;51.930;8.112;2023-06-26T18:12:24;9.35;;;2.10;;
35223;SDS011;21367;51.930;8.112;2023-06-26T18:17:30;16.05;;;2.20;;
35223;SDS011;21367;51.930;8.112;2023-06-26T18:22:36;10.73;;;2.05;;
35223;SDS011;21367;51.930;8.112;2023-06-26T18:27:40;5.10;;;1.60;;
35223;SDS011;21367;51.930;8.112;2023-06-26T18:32:46;7.53;;;1.45;;
35223;SDS011;21367;51.930;8.112;2023-06-26T18:37:50;8.55;;;1.45;;
35223;SDS011;21367;51.930;8.112;2023-06-26T18:42:53;4.65;;;1.27;;
35223;SDS011;21367;51.930;8.112;2023-06-26T18:48:00;4.95;;;1.33;;
35223;SDS011;21367;51.930;8.112;2023-06-26T18:53:05;4.43;;;1.30;;
35223;SDS011;21367;51.930;8.112;2023-06-26T18:58:09;3.70;;;1.17;;
35223;SDS011;21367;51.930;8.112;2023-06-26T19:03:15;6.22;;;1.50;;
35223;SDS011;21367;51.930;8.112;2023-06-26T19:08:19;7.03;;;1.67;;
35223;SDS011;21367;51.930;8.112;2023-06-26T19:13:22;4.75;;;1.48;;
35223;SDS011;21367;51.930;8.112;2023-06-26T19:18:29;4.63;;;1.30;;
35223;SDS011;21367;51.930;8.112;2023-06-26T19:23:32;4.85;;;1.42;;
35223;SDS011;21367;51.930;8.112;2023-06-26T19:28:36;8.50;;;1.15;;
35223;SDS011;21367;51.930;8.112;2023-06-26T19:33:42;5.03;;;1.13;;
35223;SDS011;21367;51.930;8.112;2023-06-26T19:38:46;2.88;;;1.10;;
35223;SDS011;21367;51.930;8.112;2023-06-26T19:43:49;4.43;;;1.10;;
35223;SDS011;21367;51.930;8.112;2023-06-26T19:48:56;6.03;;;1.00;;
35223;SDS011;21367;51.930;8.112;2023-06-26T19:53:59;6.50;;;1.30;;
35223;SDS011;21367;51.930;8.112;2023-06-26T19:59:03;3.92;;;1.23;;
35223;SDS011;21367;51.930;8.112;2023-06-26T20:04:09;6.50;;;1.42;;
35223;SDS011;21367;51.930;8.112;2023-06-26T20:09:15;4.72;;;1.27;;
35223;SDS011;21367;51.930;8.112;2023-06-26T20:14:18;5.28;;;1.23;;
35223;SDS011;21367;51.930;8.112;2023-06-26T20:19:25;11.48;;;1.17;;
35223;SDS011;21367;51.930;8.112;2023-06-26T20:24:32;4.88;;;1.38;;
35223;SDS011;21367;51.930;8.112;2023-06-26T20:29:36;6.68;;;1.58;;
35223;SDS011;21367;51.930;8.112;2023-06-26T20:34:42;3.15;;;1.10;;
35223;SDS011;21367;51.930;8.112;2023-06-26T20:39:46;8.02;;;1.58;;
35223;SDS011;21367;51.930;8.112;2023-06-26T20:44:50;8.82;;;1.27;;
35223;SDS011;21367;51.930;8.112;2023-06-26T20:50:00;6.68;;;1.40;;
35223;SDS011;21367;51.930;8.112;2023-06-26T20:55:05;4.85;;;1.50;;
35223;SDS011;21367;51.930;8.112;2023-06-26T21:00:10;6.53;;;1.53;;
35223;SDS011;21367;51.930;8.112;2023-06-26T21:05:17;5.80;;;1.58;;
35223;SDS011;21367;51.930;8.112;2023-06-26T21:10:21;3.78;;;1.40;;
35223;SDS011;21367;51.930;8.112;2023-06-26T21:15:25;7.15;;;1.48;;
35223;SDS011;21367;51.930;8.112;2023-06-26T21:20:31;7.50;;;1.70;;
35223;SDS011;21367;51.930;8.112;2023-06-26T21:25:35;7.25;;;1.60;;
35223;SDS011;21367;51.930;8.112;2023-06-26T21:30:39;6.80;;;2.88;;
35223;SDS011;21367;51.930;8.112;2023-06-26T21:35:45;8.02;;;2.85;;
35223;SDS011;21367;51.930;8.112;2023-06-26T21:40:49;7.45;;;2.78;;
35223;SDS011;21367;51.930;8.112;2023-06-26T21:45:53;4.82;;;2.65;;
35223;SDS011;21367;51.930;8.112;2023-06-26T21:50:59;9.07;;;2.85;;
35223;SDS011;21367;51.930;8.112;2023-06-26T21:56:03;8.93;;;2.60;;
35223;SDS011;21367;51.930;8.112;2023-06-26T22:01:06;7.72;;;2.40;;
35223;SDS011;21367;51.930;8.112;2023-06-26T22:06:13;5.60;;;3.47;;
35223;SDS011;21367;51.930;8.112;2023-06-26T22:11:16;5.95;;;2.92;;
35223;SDS011;21367;51.930;8.112;2023-06-26T22:16:20;12.05;;;3.58;;
35223;SDS011;21367;51.930;8.112;2023-06-26T22:21:26;5.07;;;3.28;;
35223;SDS011;21367;51.930;8.112;2023-06-26T22:26:30;8.70;;;3.90;;
35223;SDS011;21367;51.930;8.112;2023-06-26T22:31:34;7.68;;;4.57;;
35223;SDS011;21367;51.930;8.112;2023-06-26T22:36:41;7.60;;;5.53;;
35223;SDS011;21367;51.930;8.112;2023-06-26T22:41:44;16.45;;;10.52;;
35223;SDS011;21367;51.930;8.112;2023-06-26T22:46:48;8.82;;;5.13;;
35223;SDS011;21367;51.930;8.112;2023-06-26T22:51:54;8.45;;;7.38;;
35223;SDS011;21367;51.930;8.112;2023-06-26T22:56:58;11.18;;;7.38;;
35223;SDS011;21367;51.930;8.112;2023-06-26T23:02:02;9.60;;;8.75;;
35223;SDS011;21367;51.930;8.112;2023-06-26T23:07:08;18.90;;;17.35;;
35223;SDS011;21367;51.930;8.112;2023-06-26T23:12:13;21.25;;;18.77;;
35223;SDS011;21367;51.930;8.112;2023-06-26T23:17:17;25.20;;;23.30;;
35223;SDS011;21367;51.930;8.112;2023-06-26T23:22:23;26.13;;;23.77;;
35223;SDS011;21367;51.930;8.112;2023-06-26T23:27:27;27.45;;;24.90;;
35223;SDS011;21367;51.930;8.112;2023-06-26T23:32:30;22.92;;;20.75;;
35223;SDS011;21367;51.930;8.112;2023-06-26T23:37:36;29.05;;;26.13;;
35223;SDS011;21367;51.930;8.112;2023-06-26T23:42:41;27.23;;;24.85;;
35223;SDS011;21367;51.930;8.112;2023-06-26T23:47:44;26.90;;;24.88;;
35223;SDS011;21367;51.930;8.112;2023-06-26T23:52:50;28.63;;;26.50;;
35223;SDS011;21367;51.930;8.112;2023-06-26T23:57:54;35.75;;;32.90;;
